createdAt,value
2018-01-22T00:00:06.543Z,1.56
2018-01-22T00:02:33.937Z,1.63
2018-01-22T00:05:01.343Z,1.65
2018-01-22T00:07:28.779Z,1.56
2018-01-22T00:09:56.185Z,1.52
2018-01-22T00:12:23.566Z,1.55
2018-01-22T00:14:51.052Z,1.50
2018-01-22T00:17:18.467Z,1.49
2018-01-22T00:19:45.845Z,1.46
2018-01-22T00:22:13.264Z,1.46
2018-01-22T00:24:40.654Z,1.61
2018-01-22T00:27:08.063Z,1.62
2018-01-22T00:29:35.467Z,1.58
2018-01-22T00:32:02.902Z,1.63
2018-01-22T00:34:30.298Z,1.48
2018-01-22T00:36:57.710Z,1.54
2018-01-22T00:39:25.110Z,1.63
2018-01-22T00:41:52.514Z,1.57
2018-01-22T00:44:19.916Z,1.62
2018-01-22T00:46:47.311Z,1.74
2018-01-22T00:49:14.713Z,1.66
2018-01-22T00:51:42.102Z,1.65
2018-01-22T00:54:09.536Z,1.66
2018-01-22T00:56:36.947Z,1.52
2018-01-22T00:59:04.347Z,1.61
2018-01-22T01:01:31.751Z,1.73
2018-01-22T01:03:59.151Z,1.61
2018-01-22T01:06:26.556Z,1.50
2018-01-22T01:08:53.941Z,1.48
2018-01-22T01:11:21.353Z,1.56
2018-01-22T01:13:49.291Z,1.57
2018-01-22T01:16:16.694Z,1.57
2018-01-22T01:18:44.096Z,1.50
2018-01-22T01:21:11.508Z,1.46
2018-01-22T01:23:38.913Z,1.42
2018-01-22T01:26:06.734Z,1.34
2018-01-22T01:28:34.222Z,1.33
2018-01-22T01:31:01.647Z,1.32
2018-01-22T01:33:29.063Z,1.42
2018-01-22T01:35:56.459Z,1.40
2018-01-22T01:38:23.864Z,1.36
2018-01-22T01:40:51.266Z,1.28
2018-01-22T01:43:18.972Z,1.39
2018-01-22T01:45:46.359Z,1.53
2018-01-22T01:48:13.778Z,1.55
2018-01-22T01:50:41.162Z,1.44
2018-01-22T01:53:08.563Z,1.32
2018-01-22T01:55:35.959Z,1.29
2018-01-22T01:58:03.367Z,1.32
2018-01-22T02:00:30.771Z,1.51
2018-01-22T02:02:58.174Z,1.46
2018-01-22T02:05:25.570Z,1.54
2018-01-22T02:07:52.974Z,1.66
2018-01-22T02:10:20.382Z,1.61
2018-01-22T02:12:47.802Z,1.63
2018-01-22T02:15:15.198Z,1.61
2018-01-22T02:17:42.605Z,1.42
2018-01-22T02:20:10.002Z,1.42
2018-01-22T02:22:37.398Z,1.43
2018-01-22T02:25:04.836Z,1.41
2018-01-22T02:27:32.272Z,1.48
2018-01-22T02:29:59.654Z,1.56
2018-01-22T02:32:27.050Z,1.47
2018-01-22T02:34:54.458Z,1.43
2018-01-22T02:37:21.879Z,1.42
2018-01-22T02:39:49.261Z,1.29
2018-01-22T02:42:16.659Z,1.34
2018-01-22T02:44:44.062Z,1.35
2018-01-22T02:47:11.454Z,1.34
2018-01-22T02:49:38.954Z,1.29
2018-01-22T02:52:06.356Z,1.42
2018-01-22T02:54:33.862Z,1.25
2018-01-22T02:57:01.250Z,1.27
2018-01-22T02:59:28.658Z,1.35
2018-01-22T03:01:56.076Z,1.39
2018-01-22T03:04:23.562Z,1.42
2018-01-22T03:06:50.952Z,1.38
2018-01-22T03:09:18.347Z,1.31
2018-01-22T03:11:45.838Z,1.38
2018-01-22T03:14:13.234Z,1.44
2018-01-22T03:16:40.646Z,1.38
2018-01-22T03:19:08.038Z,1.39
2018-01-22T03:21:35.443Z,1.25
2018-01-22T03:24:02.834Z,1.22
2018-01-22T03:26:30.270Z,1.29
2018-01-22T03:28:57.665Z,1.29
2018-01-22T03:31:25.068Z,1.19
2018-01-22T03:33:52.466Z,1.19
2018-01-22T03:36:19.876Z,1.24
2018-01-22T03:38:47.326Z,1.24
2018-01-22T03:41:14.726Z,1.25
2018-01-22T03:43:42.125Z,1.34
2018-01-22T03:46:09.535Z,1.35
2018-01-22T03:48:36.972Z,1.49
2018-01-22T03:51:04.361Z,1.51
2018-01-22T03:53:31.775Z,1.53
2018-01-22T03:55:59.186Z,1.52
2018-01-22T03:58:26.586Z,1.51
2018-01-22T04:00:54.019Z,1.53
2018-01-22T04:03:21.521Z,1.54
2018-01-22T04:05:48.915Z,1.65
2018-01-22T04:08:16.311Z,1.57
2018-01-22T04:10:43.731Z,1.55
2018-01-22T04:13:11.134Z,1.54
2018-01-22T04:15:38.513Z,1.40
2018-01-22T04:18:05.951Z,1.43
2018-01-22T04:20:33.352Z,1.48
2018-01-22T04:23:00.759Z,1.57
2018-01-22T04:25:28.151Z,1.57
2018-01-22T04:27:55.554Z,1.57
2018-01-22T04:30:22.966Z,1.54
2018-01-22T04:32:50.379Z,1.57
2018-01-22T04:35:17.799Z,1.61
2018-01-22T04:37:45.206Z,1.58
2018-01-22T04:40:12.602Z,1.67
2018-01-22T04:42:40.019Z,1.70
2018-01-22T04:45:07.419Z,1.69
2018-01-22T04:47:34.913Z,1.76
2018-01-22T04:50:02.346Z,1.78
2018-01-22T04:52:29.742Z,1.79
2018-01-22T04:54:57.146Z,1.75
2018-01-22T04:57:24.604Z,1.79
2018-01-22T04:59:52.006Z,1.93
2018-01-22T05:02:19.450Z,1.83
2018-01-22T05:04:46.842Z,1.78
2018-01-22T05:07:14.253Z,1.72
2018-01-22T05:09:41.655Z,1.71
2018-01-22T05:12:09.059Z,1.88
2018-01-22T05:14:36.445Z,1.86
2018-01-22T05:17:03.879Z,1.88
2018-01-22T05:19:31.288Z,1.71
2018-01-22T05:21:58.680Z,1.67
2018-01-22T05:24:26.081Z,1.54
2018-01-22T05:26:53.467Z,1.62
2018-01-22T05:29:20.909Z,1.53
2018-01-22T05:31:48.377Z,1.49
2018-01-22T05:34:15.779Z,1.53
2018-01-22T05:36:43.262Z,1.52
2018-01-22T05:39:10.818Z,1.58
2018-01-22T05:41:38.371Z,1.53
2018-01-22T05:44:05.890Z,1.44
2018-01-22T05:46:34.434Z,1.46
2018-01-22T05:49:02.114Z,1.50
2018-01-22T05:51:29.694Z,1.50
2018-01-22T05:53:57.373Z,1.46
2018-01-22T05:56:24.842Z,1.47
2018-01-22T05:58:52.451Z,1.40
2018-01-22T06:01:19.886Z,1.39
2018-01-22T06:03:47.278Z,1.29
2018-01-22T06:06:14.756Z,1.31
2018-01-22T06:08:42.154Z,1.30
2018-01-22T06:11:09.595Z,1.33
2018-01-22T06:13:36.981Z,1.28
2018-01-22T06:16:04.366Z,1.24
2018-01-22T06:18:31.766Z,1.24
2018-01-22T06:20:59.206Z,1.28
2018-01-22T06:23:26.606Z,1.33
2018-01-22T06:25:54.798Z,1.29
2018-01-22T06:28:22.206Z,1.42
2018-01-22T06:30:49.602Z,1.50
2018-01-22T06:33:17.027Z,1.49
2018-01-22T06:35:44.503Z,1.46
2018-01-22T06:38:11.932Z,1.38
2018-01-22T06:40:39.322Z,1.35
2018-01-22T06:43:06.734Z,1.34
2018-01-22T06:45:34.147Z,1.38
2018-01-22T06:48:01.543Z,1.31
2018-01-22T06:50:28.957Z,1.30
2018-01-22T06:52:56.374Z,1.35
2018-01-22T06:55:23.761Z,1.35
2018-01-22T06:57:51.350Z,1.33
2018-01-22T07:00:18.758Z,1.23
2018-01-22T07:02:46.915Z,1.28
2018-01-22T07:05:14.303Z,1.30
2018-01-22T07:07:41.695Z,1.27
2018-01-22T07:10:09.090Z,1.28
2018-01-22T07:12:36.501Z,1.45
2018-01-22T07:15:03.906Z,1.48
2018-01-22T07:17:31.317Z,1.39
2018-01-22T07:19:58.833Z,1.49
2018-01-22T07:22:26.254Z,1.43
2018-01-22T07:24:53.659Z,1.49
2018-01-22T07:27:21.063Z,1.36
2018-01-22T07:29:48.458Z,1.35
2018-01-22T07:32:15.854Z,1.47
2018-01-22T07:34:43.254Z,1.48
2018-01-22T07:37:10.652Z,1.46
2018-01-22T07:39:38.050Z,1.42
2018-01-22T07:42:05.452Z,1.43
2018-01-22T07:44:32.856Z,1.40
2018-01-22T07:47:00.263Z,1.42
2018-01-22T07:49:27.663Z,1.37
2018-01-22T07:51:55.059Z,1.37
2018-01-22T07:54:22.457Z,1.36
2018-01-22T07:56:49.873Z,1.40
2018-01-22T07:59:17.250Z,1.38
2018-01-22T08:01:44.650Z,1.48
2018-01-22T08:04:12.092Z,1.53
2018-01-22T08:06:39.482Z,1.50
2018-01-22T08:09:06.870Z,1.51
2018-01-22T08:11:34.270Z,1.53
2018-01-22T08:14:01.672Z,1.54
2018-01-22T08:16:29.086Z,1.49
2018-01-22T08:18:56.539Z,1.44
2018-01-22T08:21:23.941Z,1.52
2018-01-22T08:23:51.334Z,1.46
2018-01-22T08:26:18.738Z,1.43
2018-01-22T08:28:46.153Z,1.46
2018-01-22T08:31:13.556Z,1.51
2018-01-22T08:33:40.941Z,1.55
2018-01-22T08:36:08.358Z,1.46
2018-01-22T08:38:35.766Z,1.50
2018-01-22T08:41:03.171Z,1.44
2018-01-22T08:43:30.562Z,1.39
2018-01-22T08:45:57.982Z,1.43
2018-01-22T08:48:25.450Z,1.49
2018-01-22T08:50:52.862Z,1.60
2018-01-22T08:53:20.252Z,1.59
2018-01-22T08:55:47.650Z,1.66
2018-01-22T08:58:15.058Z,1.73
2018-01-22T09:00:42.455Z,1.69
2018-01-22T09:03:09.845Z,1.74
2018-01-22T09:05:37.246Z,1.77
2018-01-22T09:08:04.642Z,1.66
2018-01-22T09:10:32.058Z,1.58
2018-01-22T09:12:59.455Z,1.54
2018-01-22T09:15:26.859Z,1.60
2018-01-22T09:17:54.251Z,1.52
2018-01-22T09:20:21.670Z,1.56
2018-01-22T09:22:49.068Z,1.51
2018-01-22T09:25:16.453Z,1.56
2018-01-22T09:27:43.867Z,1.54
2018-01-22T09:30:11.285Z,1.60
2018-01-22T09:32:38.675Z,1.55
2018-01-22T09:35:06.063Z,1.56
2018-01-22T09:37:33.469Z,1.56
2018-01-22T09:40:00.884Z,1.51
2018-01-22T09:42:28.281Z,1.50
2018-01-22T09:44:55.706Z,1.47
2018-01-22T09:47:23.111Z,1.48
2018-01-22T09:49:50.506Z,1.44
2018-01-22T09:52:17.927Z,1.46
2018-01-22T09:54:45.314Z,1.55
2018-01-22T09:57:12.723Z,1.60
2018-01-22T09:59:40.093Z,1.67
2018-01-22T10:02:07.550Z,1.59
2018-01-22T10:04:34.975Z,1.65
2018-01-22T10:07:02.396Z,1.63
2018-01-22T10:09:29.809Z,1.73
2018-01-22T10:11:57.226Z,1.71
2018-01-22T10:14:24.601Z,1.64
2018-01-22T10:16:51.986Z,1.61
2018-01-22T10:19:19.382Z,1.64
2018-01-22T10:21:46.775Z,1.64
2018-01-22T10:24:14.182Z,1.65
2018-01-22T10:26:41.574Z,1.63
2018-01-22T10:29:08.970Z,1.68
2018-01-22T10:31:36.357Z,1.72
2018-01-22T10:34:03.756Z,1.73
2018-01-22T10:36:31.148Z,1.72
2018-01-22T10:38:58.560Z,1.83
2018-01-22T10:41:25.951Z,1.84
2018-01-22T10:43:53.347Z,1.95
2018-01-22T10:46:20.735Z,1.89
2018-01-22T10:48:48.142Z,1.86
2018-01-22T10:51:15.547Z,1.81
2018-01-22T10:53:42.937Z,1.84
2018-01-22T10:56:10.330Z,1.80
2018-01-22T10:58:37.725Z,1.80
2018-01-22T11:01:05.142Z,1.96
2018-01-22T11:03:32.534Z,1.93
2018-01-22T11:05:59.946Z,1.87
2018-01-22T11:08:27.382Z,1.99
2018-01-22T11:10:54.807Z,2.11
2018-01-22T11:13:22.171Z,2.31
2018-01-22T11:15:55.229Z,2.49
2018-01-22T11:18:22.722Z,2.64
2018-01-22T11:20:50.126Z,2.95
2018-01-22T11:23:17.522Z,2.98
2018-01-22T11:25:44.921Z,2.90
2018-01-22T11:28:12.326Z,2.98
2018-01-22T11:30:39.737Z,2.72
2018-01-22T11:33:07.259Z,2.80
2018-01-22T11:35:34.675Z,2.58
2018-01-22T11:38:02.082Z,2.55
2018-01-22T11:40:29.470Z,2.46
2018-01-22T11:42:56.874Z,2.37
2018-01-22T11:45:24.263Z,2.34
2018-01-22T11:47:51.653Z,2.52
2018-01-22T11:50:19.042Z,2.56
2018-01-22T11:52:46.498Z,2.68
2018-01-22T11:55:13.886Z,2.67
2018-01-22T11:57:41.305Z,2.74
2018-01-22T12:00:08.707Z,2.88
2018-01-22T12:02:36.099Z,3.09
2018-01-22T12:05:03.500Z,2.98
2018-01-22T12:07:30.890Z,2.92
2018-01-22T12:09:58.278Z,2.79
2018-01-22T12:12:25.682Z,2.89
2018-01-22T12:14:53.086Z,2.96
2018-01-22T12:17:20.503Z,2.96
2018-01-22T12:19:47.917Z,3.07
2018-01-22T12:22:15.317Z,3.09
2018-01-22T12:24:42.819Z,2.97
2018-01-22T12:27:10.254Z,3.02
2018-01-22T12:29:37.672Z,2.90
2018-01-22T12:32:05.075Z,2.87
2018-01-22T12:34:32.466Z,3.06
2018-01-22T12:36:59.854Z,3.02
2018-01-22T12:39:27.310Z,3.19
2018-01-22T12:41:54.690Z,3.14
2018-01-22T12:44:22.117Z,3.27
2018-01-22T12:46:49.505Z,3.42
2018-01-22T12:49:16.898Z,3.24
2018-01-22T12:51:44.307Z,2.97
2018-01-22T12:54:12.066Z,2.81
2018-01-22T12:56:39.459Z,2.83
2018-01-22T12:59:06.864Z,2.87
2018-01-22T13:01:34.246Z,3.16
2018-01-22T13:04:01.654Z,3.42
2018-01-22T13:06:29.038Z,3.34
2018-01-22T13:08:56.509Z,3.23
2018-01-22T13:11:23.898Z,3.07
2018-01-22T13:13:51.327Z,2.94
2018-01-22T13:16:18.911Z,2.87
2018-01-22T13:18:46.320Z,2.81
2018-01-22T13:21:13.703Z,2.85
2018-01-22T13:23:41.148Z,2.92
2018-01-22T13:26:08.539Z,3.01
2018-01-22T13:28:35.974Z,3.17
2018-01-22T13:31:03.443Z,3.36
2018-01-22T13:33:30.827Z,3.51
2018-01-22T13:35:58.234Z,3.56
2018-01-22T13:38:25.622Z,3.61
2018-01-22T13:40:58.758Z,3.54
2018-01-22T13:43:26.141Z,3.76
2018-01-22T13:45:53.760Z,3.77
2018-01-22T13:48:21.182Z,3.93
2018-01-22T13:50:48.585Z,3.82
2018-01-22T13:53:15.983Z,4.06
2018-01-22T13:55:43.375Z,4.15
2018-01-22T13:58:10.767Z,4.24
2018-01-22T14:00:38.187Z,4.10
2018-01-22T14:03:05.558Z,4.07
2018-01-22T14:05:32.966Z,4.01
2018-01-22T14:08:00.355Z,4.08
2018-01-22T14:10:27.754Z,4.18
2018-01-22T14:12:55.168Z,4.17
2018-01-22T14:15:22.559Z,4.19
2018-01-22T14:17:49.978Z,4.01
2018-01-22T14:20:17.393Z,4.28
2018-01-22T14:22:44.786Z,4.27
2018-01-22T14:25:12.179Z,4.27
2018-01-22T14:27:39.580Z,4.33
2018-01-22T14:30:06.974Z,4.41
2018-01-22T14:32:34.387Z,4.52
2018-01-22T14:35:01.799Z,4.64
2018-01-22T14:37:29.217Z,4.64
2018-01-22T14:39:56.621Z,4.67
2018-01-22T14:42:24.019Z,4.74
2018-01-22T14:44:51.416Z,4.67
2018-01-22T14:47:18.837Z,4.68
2018-01-22T14:49:46.224Z,4.80
2018-01-22T14:52:13.626Z,4.87
2018-01-22T14:54:41.003Z,5.04
2018-01-22T14:57:08.402Z,5.16
2018-01-22T14:59:35.788Z,5.20
2018-01-22T15:02:03.190Z,5.28
2018-01-22T15:04:30.586Z,5.38
2018-01-22T15:06:57.977Z,5.46
2018-01-22T15:09:25.385Z,5.51
2018-01-22T15:11:52.777Z,5.58
2018-01-22T15:14:20.190Z,5.51
2018-01-22T15:16:47.618Z,5.57
2018-01-22T15:19:15.030Z,5.55
2018-01-22T15:21:42.426Z,5.56
2018-01-22T15:24:09.839Z,5.52
2018-01-22T15:26:37.247Z,5.58
2018-01-22T15:29:04.645Z,5.58
2018-01-22T15:31:32.039Z,5.34
2018-01-22T15:33:59.455Z,5.14
2018-01-22T15:36:26.852Z,5.12
2018-01-22T15:38:54.267Z,4.74
2018-01-22T15:41:21.671Z,4.53
2018-01-22T15:43:49.074Z,4.68
2018-01-22T15:46:16.462Z,4.47
2018-01-22T15:48:43.876Z,4.70
2018-01-22T15:51:11.286Z,4.73
2018-01-22T15:53:38.701Z,4.90
2018-01-22T15:56:06.102Z,4.95
2018-01-22T15:58:33.515Z,5.12
2018-01-22T16:01:00.922Z,5.17
2018-01-22T16:03:28.392Z,5.24
2018-01-22T16:05:55.832Z,5.37
2018-01-22T16:08:23.230Z,5.28
2018-01-22T16:10:50.631Z,5.22
2018-01-22T16:13:18.023Z,5.15
2018-01-22T16:15:45.426Z,5.21
2018-01-22T16:18:12.835Z,5.22
2018-01-22T16:20:40.256Z,5.38
2018-01-22T16:23:07.653Z,5.38
2018-01-22T16:25:35.069Z,5.29
2018-01-22T16:28:02.458Z,5.15
2018-01-22T16:30:29.861Z,5.19
2018-01-22T16:32:57.258Z,5.36
2018-01-22T16:35:24.675Z,5.39
2018-01-22T16:37:52.098Z,5.35
2018-01-22T16:40:19.503Z,5.47
2018-01-22T16:42:46.898Z,5.38
2018-01-22T16:45:14.305Z,5.36
2018-01-22T16:47:47.203Z,5.43
2018-01-22T16:50:14.642Z,5.50
2018-01-22T16:52:42.044Z,5.47
2018-01-22T16:55:09.454Z,5.60
2018-01-22T16:57:36.870Z,5.70
2018-01-22T17:00:04.266Z,5.71
2018-01-22T17:02:31.778Z,5.70
2018-01-22T17:04:59.169Z,5.80
2018-01-22T17:07:26.604Z,5.74
2018-01-22T17:09:54.002Z,5.80
2018-01-22T17:12:21.402Z,5.60
2018-01-22T17:14:48.802Z,5.66
2018-01-22T17:17:16.199Z,5.70
2018-01-22T17:19:43.603Z,5.72
2018-01-22T17:22:11.011Z,5.61
2018-01-22T17:24:38.488Z,5.60
2018-01-22T17:27:05.897Z,5.65
2018-01-22T17:29:33.293Z,5.77
2018-01-22T17:32:00.722Z,5.47
2018-01-22T17:34:28.122Z,5.44
2018-01-22T17:36:55.555Z,5.37
2018-01-22T17:39:22.962Z,5.23
2018-01-22T17:41:50.371Z,5.12
2018-01-22T17:44:17.754Z,4.92
2018-01-22T17:46:45.175Z,4.92
2018-01-22T17:49:12.630Z,5.04
2018-01-22T17:51:40.030Z,4.92
2018-01-22T17:54:07.455Z,4.97
2018-01-22T17:56:34.851Z,5.02
2018-01-22T17:59:02.273Z,5.02
2018-01-22T18:01:29.666Z,5.13
2018-01-22T18:03:57.169Z,5.03
2018-01-22T18:06:24.555Z,5.03
2018-01-22T18:08:51.960Z,5.10
2018-01-22T18:11:19.358Z,4.99
2018-01-22T18:13:46.768Z,4.94
2018-01-22T18:16:14.259Z,5.24
2018-01-22T18:18:41.652Z,5.34
2018-01-22T18:21:09.479Z,5.42
2018-01-22T18:23:36.882Z,5.43
2018-01-22T18:26:04.339Z,5.42
2018-01-22T18:28:31.746Z,5.51
2018-01-22T18:30:59.173Z,5.67
2018-01-22T18:33:26.589Z,5.78
2018-01-22T18:35:53.991Z,5.82
2018-01-22T18:38:21.389Z,5.92
2018-01-22T18:40:48.787Z,5.73
2018-01-22T18:43:16.206Z,5.70
2018-01-22T18:45:43.614Z,5.79
2018-01-22T18:48:11.023Z,5.95
2018-01-22T18:50:38.444Z,6.00
2018-01-22T18:53:05.845Z,5.94
2018-01-22T18:55:33.265Z,6.08
2018-01-22T18:58:00.658Z,6.03
2018-01-22T19:00:28.068Z,6.15
2018-01-22T19:02:55.462Z,6.29
2018-01-22T19:05:22.872Z,6.37
2018-01-22T19:07:50.311Z,6.48
2018-01-22T19:10:17.710Z,6.56
2018-01-22T19:12:45.107Z,6.55
2018-01-22T19:15:12.615Z,6.61
2018-01-22T19:17:40.018Z,6.62
2018-01-22T19:20:07.430Z,6.64
2018-01-22T19:22:34.837Z,6.64
2018-01-22T19:25:02.243Z,6.66
2018-01-22T19:27:30.445Z,6.65
2018-01-22T19:29:57.859Z,6.62
2018-01-22T19:32:25.262Z,6.50
2018-01-22T19:34:52.672Z,6.66
2018-01-22T19:37:20.075Z,6.50
2018-01-22T19:39:47.495Z,6.48
2018-01-22T19:42:14.919Z,6.43
2018-01-22T19:44:42.310Z,6.45
2018-01-22T19:47:09.718Z,6.38
2018-01-22T19:49:37.194Z,6.38
2018-01-22T19:52:04.694Z,6.42
2018-01-22T19:54:32.094Z,6.49
2018-01-22T19:56:59.498Z,6.48
2018-01-22T19:59:26.925Z,6.42
2018-01-22T20:01:54.324Z,6.36
2018-01-22T20:04:21.801Z,6.37
2018-01-22T20:06:49.283Z,6.50
2018-01-22T20:09:16.859Z,6.57
2018-01-22T20:11:44.283Z,6.37
2018-01-22T20:14:11.721Z,6.53
2018-01-22T20:16:39.136Z,6.66
2018-01-22T20:21:40.429Z,6.64
2018-01-22T20:24:07.831Z,6.59
2018-01-22T20:26:36.449Z,6.68
2018-01-22T20:29:03.860Z,6.52
2018-01-22T20:31:31.262Z,6.48
2018-01-22T20:33:58.658Z,6.48
2018-01-22T20:36:26.071Z,6.55
2018-01-22T20:38:53.476Z,6.65
2018-01-22T20:41:20.910Z,6.76
2018-01-22T20:43:48.321Z,6.65
2018-01-22T20:46:15.717Z,6.69
2018-01-22T20:48:43.118Z,6.79
2018-01-22T20:51:10.579Z,6.87
2018-01-22T20:53:37.974Z,6.88
2018-01-22T20:56:05.386Z,6.95
2018-01-22T20:58:32.807Z,6.97
2018-01-22T21:01:00.243Z,6.99
2018-01-22T21:03:27.695Z,7.05
2018-01-22T21:05:55.091Z,7.08
2018-01-22T21:08:22.510Z,7.09
2018-01-22T21:10:49.922Z,7.06
2018-01-22T21:13:17.343Z,7.11
2018-01-22T21:15:44.762Z,7.13
2018-01-22T21:18:12.179Z,7.14
2018-01-22T21:20:39.968Z,7.14
2018-01-22T21:23:07.371Z,7.08
2018-01-22T21:25:34.774Z,7.11
2018-01-22T21:28:02.187Z,7.07
2018-01-22T21:30:29.695Z,7.11
2018-01-22T21:32:57.123Z,7.07
2018-01-22T21:35:24.534Z,7.07
2018-01-22T21:37:51.943Z,7.08
2018-01-22T21:40:19.349Z,7.06
2018-01-22T21:42:46.758Z,6.85
2018-01-22T21:45:14.216Z,6.66
2018-01-22T21:47:41.618Z,6.64
2018-01-22T21:50:09.018Z,6.53
2018-01-22T21:52:36.418Z,6.53
2018-01-22T21:55:03.817Z,6.63
2018-01-22T21:57:31.219Z,6.59
2018-01-22T21:59:58.643Z,6.47
2018-01-22T22:02:26.044Z,6.40
2018-01-22T22:04:53.455Z,6.38
2018-01-22T22:07:20.875Z,6.34
2018-01-22T22:09:48.312Z,6.42
2018-01-22T22:12:15.706Z,6.52
2018-01-22T22:14:43.113Z,6.64
2018-01-22T22:17:10.514Z,6.43
2018-01-22T22:19:37.924Z,6.49
2018-01-22T22:22:05.314Z,6.33
2018-01-22T22:24:32.766Z,6.52
2018-01-22T22:27:00.158Z,6.35
2018-01-22T22:29:27.566Z,6.40
2018-01-22T22:31:54.984Z,6.44
2018-01-22T22:34:22.422Z,6.63
2018-01-22T22:36:49.835Z,6.64
2018-01-22T22:39:17.251Z,6.79
2018-01-22T22:41:44.670Z,6.75
2018-01-22T22:44:12.114Z,6.85
2018-01-22T22:46:39.543Z,6.79
2018-01-22T22:49:06.970Z,6.83
2018-01-22T22:51:34.369Z,6.62
2018-01-22T22:54:01.778Z,6.60
2018-01-22T22:56:29.180Z,6.64
2018-01-22T22:58:56.600Z,6.75
2018-01-22T23:01:24.009Z,6.47
2018-01-22T23:03:51.409Z,6.48
2018-01-22T23:06:18.815Z,6.50
2018-01-22T23:08:46.209Z,6.48
2018-01-22T23:11:13.627Z,6.45
2018-01-22T23:13:41.026Z,6.46
2018-01-22T23:16:08.425Z,6.42
2018-01-22T23:18:35.814Z,6.47
2018-01-22T23:21:03.221Z,6.43
2018-01-22T23:23:30.641Z,6.44
2018-01-22T23:25:58.050Z,6.37
2018-01-22T23:28:25.448Z,6.31
2018-01-22T23:30:52.874Z,6.26
2018-01-22T23:33:20.289Z,6.37
2018-01-22T23:35:47.696Z,6.46
2018-01-22T23:38:15.090Z,6.47
2018-01-22T23:40:43.154Z,6.53
2018-01-22T23:43:10.558Z,6.52
2018-01-22T23:45:37.970Z,6.29
2018-01-22T23:48:05.366Z,6.44
2018-01-22T23:50:32.846Z,6.36
2018-01-22T23:53:00.230Z,6.57
2018-01-22T23:55:27.647Z,6.57
2018-01-22T23:57:55.062Z,6.77
